sensor_id;sensor_type;location;lat;lon;timestamp;pressure;altitude;pressure_sealevel;temperature;humidity
11049;BME280;5577;42.706;23.160;2023-03-16T00:01:52;93287.84;;;2.93;100.00
11049;BME280;5577;42.706;23.160;2023-03-16T00:04:36;93293.09;;;2.93;100.00
11049;BME280;5577;42.706;23.160;2023-03-16T00:07:21;93298.47;;;2.97;100.00
11049;BME280;5577;42.706;23.160;2023-03-16T00:10:05;93295.31;;;2.83;100.00
11049;BME280;5577;42.706;23.160;2023-03-16T00:12:50;93292.81;;;2.86;100.00
11049;BME280;5577;42.706;23.160;2023-03-16T00:15:36;93294.03;;;2.89;100.00
11049;BME280;5577;42.706;23.160;2023-03-16T00:18:20;93300.41;;;2.79;100.00
11049;BME280;5577;42.706;23.160;2023-03-16T00:21:05;93299.88;;;2.86;100.00
11049;BME280;5577;42.706;23.160;2023-03-16T00:23:49;93307.03;;;2.97;100.00
11049;BME280;5577;42.706;23.160;2023-03-16T00:26:36;93306.31;;;2.97;100.00
11049;BME280;5577;42.706;23.160;2023-03-16T00:29:20;93316.59;;;2.93;100.00
11049;BME280;5577;42.706;23.160;2023-03-16T00:32:05;93256.44;;;2.52;100.00
11049;BME280;5577;42.706;23.160;2023-03-16T00:34:50;93315.53;;;2.94;100.00
11049;BME280;5577;42.706;23.160;2023-03-16T00:37:34;93320.94;;;2.89;100.00
11049;BME280;5577;42.706;23.160;2023-03-16T00:40:19;93323.09;;;2.87;100.00
11049;BME280;5577;42.706;23.160;2023-03-16T00:43:03;93324.19;;;2.86;100.00
11049;BME280;5577;42.706;23.160;2023-03-16T00:45:48;93330.34;;;2.82;100.00
11049;BME280;5577;42.706;23.160;2023-03-16T00:48:33;93330.88;;;2.75;100.00
11049;BME280;5577;42.706;23.160;2023-03-16T00:51:18;93333.56;;;2.58;100.00
11049;BME280;5577;42.706;23.160;2023-03-16T00:54:02;93336.66;;;2.60;100.00
11049;BME280;5577;42.706;23.160;2023-03-16T00:56:48;93317.06;;;2.37;100.00
11049;BME280;5577;42.706;23.160;2023-03-16T00:59:31;93332.94;;;2.32;100.00
11049;BME280;5577;42.706;23.160;2023-03-16T01:02:20;93331.34;;;2.40;100.00
11049;BME280;5577;42.706;23.160;2023-03-16T01:05:07;93334.47;;;2.25;100.00
11049;BME280;5577;42.706;23.160;2023-03-16T01:07:52;93331.25;;;2.28;100.00
11049;BME280;5577;42.706;23.160;2023-03-16T01:10:36;93329.25;;;2.25;100.00
11049;BME280;5577;42.706;23.160;2023-03-16T01:13:21;93329.13;;;2.21;100.00
11049;BME280;5577;42.706;23.160;2023-03-16T01:16:05;93304.78;;;2.00;100.00
11049;BME280;5577;42.706;23.160;2023-03-16T01:18:49;93340.19;;;2.18;100.00
11049;BME280;5577;42.706;23.160;2023-03-16T01:21:35;93330.13;;;2.00;100.00
11049;BME280;5577;42.706;23.160;2023-03-16T01:24:20;93310.97;;;1.79;100.00
11049;BME280;5577;42.706;23.160;2023-03-16T01:27:07;93342.38;;;1.99;100.00
11049;BME280;5577;42.706;23.160;2023-03-16T01:29:51;93337.31;;;2.11;100.00
11049;BME280;5577;42.706;23.160;2023-03-16T01:32:35;93335.28;;;2.17;100.00
11049;BME280;5577;42.706;23.160;2023-03-16T01:35:19;93329.44;;;2.20;100.00
11049;BME280;5577;42.706;23.160;2023-03-16T01:38:04;93345.53;;;2.22;100.00
11049;BME280;5577;42.706;23.160;2023-03-16T01:40:49;93348.34;;;2.17;100.00
11049;BME280;5577;42.706;23.160;2023-03-16T01:43:36;93358.34;;;2.06;100.00
11049;BME280;5577;42.706;23.160;2023-03-16T01:46:26;93358.66;;;2.05;100.00
11049;BME280;5577;42.706;23.160;2023-03-16T01:49:20;93337.91;;;2.08;100.00
11049;BME280;5577;42.706;23.160;2023-03-16T01:52:09;93361.69;;;2.24;100.00
11049;BME280;5577;42.706;23.160;2023-03-16T01:54:59;93365.81;;;2.25;100.00
11049;BME280;5577;42.706;23.160;2023-03-16T01:57:45;93364.97;;;2.04;100.00
11049;BME280;5577;42.706;23.160;2023-03-16T02:00:29;93367.38;;;2.09;100.00
11049;BME280;5577;42.706;23.160;2023-03-16T02:03:17;93371.09;;;2.08;100.00
11049;BME280;5577;42.706;23.160;2023-03-16T02:06:14;93383.50;;;2.19;100.00
11049;BME280;5577;42.706;23.160;2023-03-16T02:09:01;93378.91;;;2.16;100.00
11049;BME280;5577;42.706;23.160;2023-03-16T02:11:46;93372.28;;;2.10;100.00
11049;BME280;5577;42.706;23.160;2023-03-16T02:14:30;93381.66;;;2.20;100.00
11049;BME280;5577;42.706;23.160;2023-03-16T02:17:18;93382.28;;;2.17;100.00
11049;BME280;5577;42.706;23.160;2023-03-16T02:22:53;93398.25;;;2.15;100.00
11049;BME280;5577;42.706;23.160;2023-03-16T02:25:57;93398.41;;;2.10;100.00
11049;BME280;5577;42.706;23.160;2023-03-16T02:28:54;93365.28;;;1.85;100.00
11049;BME280;5577;42.706;23.160;2023-03-16T02:31:41;93405.22;;;1.86;100.00
11049;BME280;5577;42.706;23.160;2023-03-16T02:34:25;93403.53;;;1.81;100.00
11049;BME280;5577;42.706;23.160;2023-03-16T02:37:10;93406.41;;;1.97;100.00
11049;BME280;5577;42.706;23.160;2023-03-16T02:39:54;93418.38;;;1.98;100.00
11049;BME280;5577;42.706;23.160;2023-03-16T02:42:38;93422.88;;;1.89;100.00
11049;BME280;5577;42.706;23.160;2023-03-16T02:45:25;93396.47;;;1.65;100.00
11049;BME280;5577;42.706;23.160;2023-03-16T02:48:17;93415.19;;;1.75;100.00
11049;BME280;5577;42.706;23.160;2023-03-16T02:51:05;93415.34;;;1.70;100.00
11049;BME280;5577;42.706;23.160;2023-03-16T02:53:49;93417.34;;;1.65;100.00
11049;BME280;5577;42.706;23.160;2023-03-16T02:56:33;93427.31;;;1.71;100.00
11049;BME280;5577;42.706;23.160;2023-03-16T02:59:17;93427.00;;;1.73;100.00
11049;BME280;5577;42.706;23.160;2023-03-16T03:02:01;93314.28;;;0.99;100.00
11049;BME280;5577;42.706;23.160;2023-03-16T03:04:45;93394.03;;;1.43;100.00
11049;BME280;5577;42.706;23.160;2023-03-16T03:07:29;93425.16;;;1.56;100.00
11049;BME280;5577;42.706;23.160;2023-03-16T03:10:15;93428.56;;;1.57;100.00
11049;BME280;5577;42.706;23.160;2023-03-16T03:12:59;93442.50;;;1.52;100.00
11049;BME280;5577;42.706;23.160;2023-03-16T03:15:42;93437.28;;;1.35;100.00
11049;BME280;5577;42.706;23.160;2023-03-16T03:18:26;93430.06;;;1.41;100.00
11049;BME280;5577;42.706;23.160;2023-03-16T03:21:10;93435.28;;;1.49;100.00
11049;BME280;5577;42.706;23.160;2023-03-16T03:23:54;93449.72;;;1.55;100.00
11049;BME280;5577;42.706;23.160;2023-03-16T03:26:38;93448.03;;;1.51;100.00
11049;BME280;5577;42.706;23.160;2023-03-16T03:29:22;93455.38;;;1.49;100.00
11049;BME280;5577;42.706;23.160;2023-03-16T03:32:06;93453.06;;;1.30;100.00
11049;BME280;5577;42.706;23.160;2023-03-16T03:34:50;93463.63;;;1.25;100.00
11049;BME280;5577;42.706;23.160;2023-03-16T03:37:35;93451.84;;;1.36;100.00
11049;BME280;5577;42.706;23.160;2023-03-16T03:40:19;93465.97;;;1.44;100.00
11049;BME280;5577;42.706;23.160;2023-03-16T03:43:04;93455.38;;;1.40;100.00
11049;BME280;5577;42.706;23.160;2023-03-16T03:45:49;93463.66;;;1.42;100.00
11049;BME280;5577;42.706;23.160;2023-03-16T03:48:37;93463.06;;;1.45;100.00
11049;BME280;5577;42.706;23.160;2023-03-16T03:51:21;93466.13;;;1.56;100.00
11049;BME280;5577;42.706;23.160;2023-03-16T03:54:05;93464.28;;;1.48;100.00
11049;BME280;5577;42.706;23.160;2023-03-16T03:56:52;93470.72;;;1.50;100.00
11049;BME280;5577;42.706;23.160;2023-03-16T03:59:37;93470.41;;;1.52;100.00
11049;BME280;5577;42.706;23.160;2023-03-16T04:02:26;93471.81;;;1.49;100.00
11049;BME280;5577;42.706;23.160;2023-03-16T04:05:10;93473.81;;;1.61;100.00
11049;BME280;5577;42.706;23.160;2023-03-16T04:07:54;93473.03;;;1.52;100.00
11049;BME280;5577;42.706;23.160;2023-03-16T04:10:40;93490.09;;;1.66;100.00
11049;BME280;5577;42.706;23.160;2023-03-16T04:13:24;93482.72;;;1.51;100.00
11049;BME280;5577;42.706;23.160;2023-03-16T04:16:08;93480.56;;;1.62;100.00
11049;BME280;5577;42.706;23.160;2023-03-16T04:18:53;93483.16;;;1.53;100.00
11049;BME280;5577;42.706;23.160;2023-03-16T04:21:37;93481.78;;;1.56;100.00
11049;BME280;5577;42.706;23.160;2023-03-16T04:24:21;93498.50;;;1.55;100.00
11049;BME280;5577;42.706;23.160;2023-03-16T04:27:05;93462.88;;;1.33;100.00
11049;BME280;5577;42.706;23.160;2023-03-16T04:29:49;93489.13;;;1.37;100.00
11049;BME280;5577;42.706;23.160;2023-03-16T04:32:33;93502.91;;;1.29;100.00
11049;BME280;5577;42.706;23.160;2023-03-16T04:35:17;93505.03;;;1.27;100.00
11049;BME280;5577;42.706;23.160;2023-03-16T04:38:01;93507.50;;;1.32;100.00
11049;BME280;5577;42.706;23.160;2023-03-16T04:40:45;93515.97;;;1.46;100.00
11049;BME280;5577;42.706;23.160;2023-03-16T04:43:29;93523.97;;;1.49;100.00
11049;BME280;5577;42.706;23.160;2023-03-16T04:46:17;93520.88;;;1.47;100.00
11049;BME280;5577;42.706;23.160;2023-03-16T04:49:01;93526.88;;;1.48;100.00
11049;BME280;5577;42.706;23.160;2023-03-16T04:51:45;93526.41;;;1.37;100.00
11049;BME280;5577;42.706;23.160;2023-03-16T04:54:30;93536.38;;;1.44;100.00
11049;BME280;5577;42.706;23.160;2023-03-16T04:57:14;93538.53;;;1.50;100.00
11049;BME280;5577;42.706;23.160;2023-03-16T05:00:03;93533.47;;;1.45;100.00
11049;BME280;5577;42.706;23.160;2023-03-16T05:03:01;93541.00;;;1.47;100.00
11049;BME280;5577;42.706;23.160;2023-03-16T05:05:47;93544.53;;;1.51;100.00
11049;BME280;5577;42.706;23.160;2023-03-16T05:08:32;93536.84;;;1.37;100.00
11049;BME280;5577;42.706;23.160;2023-03-16T05:11:16;93551.81;;;1.23;100.00
11049;BME280;5577;42.706;23.160;2023-03-16T05:14:00;93546.09;;;1.13;100.00
11049;BME280;5577;42.706;23.160;2023-03-16T05:16:47;93549.97;;;1.24;100.00
11049;BME280;5577;42.706;23.160;2023-03-16T05:19:31;93552.47;;;1.37;100.00
11049;BME280;5577;42.706;23.160;2023-03-16T05:22:16;93550.78;;;1.33;100.00
11049;BME280;5577;42.706;23.160;2023-03-16T05:25:00;93566.13;;;1.34;100.00
11049;BME280;5577;42.706;23.160;2023-03-16T05:27:50;93564.91;;;1.49;100.00
11049;BME280;5577;42.706;23.160;2023-03-16T05:30:35;93572.28;;;1.47;100.00
11049;BME280;5577;42.706;23.160;2023-03-16T05:33:20;93561.31;;;1.28;100.00
11049;BME280;5577;42.706;23.160;2023-03-16T05:36:05;93568.25;;;1.32;100.00
11049;BME280;5577;42.706;23.160;2023-03-16T05:38:50;93577.16;;;1.40;100.00
11049;BME280;5577;42.706;23.160;2023-03-16T05:41:34;93581.59;;;1.39;100.00
11049;BME280;5577;42.706;23.160;2023-03-16T05:44:18;93582.34;;;1.31;100.00
11049;BME280;5577;42.706;23.160;2023-03-16T05:47:02;93586.19;;;1.34;100.00
11049;BME280;5577;42.706;23.160;2023-03-16T05:49:46;93573.25;;;1.20;100.00
11049;BME280;5577;42.706;23.160;2023-03-16T05:52:31;93588.34;;;1.40;100.00
11049;BME280;5577;42.706;23.160;2023-03-16T05:55:16;93591.13;;;1.44;100.00
11049;BME280;5577;42.706;23.160;2023-03-16T05:58:00;93594.00;;;1.34;100.00
11049;BME280;5577;42.706;23.160;2023-03-16T06:00:44;93605.59;;;1.19;100.00
11049;BME280;5577;42.706;23.160;2023-03-16T06:03:28;93606.25;;;1.25;100.00
11049;BME280;5577;42.706;23.160;2023-03-16T06:06:12;93604.59;;;1.29;100.00
11049;BME280;5577;42.706;23.160;2023-03-16T06:08:56;93565.41;;;1.12;100.00
11049;BME280;5577;42.706;23.160;2023-03-16T06:11:40;93610.47;;;1.43;100.00
11049;BME280;5577;42.706;23.160;2023-03-16T06:14:24;93608.78;;;1.47;100.00
11049;BME280;5577;42.706;23.160;2023-03-16T06:17:08;93616.78;;;1.50;100.00
11049;BME280;5577;42.706;23.160;2023-03-16T06:19:52;93620.28;;;1.37;100.00
11049;BME280;5577;42.706;23.160;2023-03-16T06:22:37;93613.53;;;1.45;100.00
11049;BME280;5577;42.706;23.160;2023-03-16T06:25:22;93616.31;;;1.48;100.00
11049;BME280;5577;42.706;23.160;2023-03-16T06:28:07;93623.97;;;1.45;100.00
11049;BME280;5577;42.706;23.160;2023-03-16T06:30:55;93623.22;;;1.53;100.00
11049;BME280;5577;42.706;23.160;2023-03-16T06:33:40;93632.16;;;1.60;100.00
11049;BME280;5577;42.706;23.160;2023-03-16T06:36:24;93622.59;;;1.47;100.00
11049;BME280;5577;42.706;23.160;2023-03-16T06:39:08;93633.88;;;1.65;100.00
11049;BME280;5577;42.706;23.160;2023-03-16T06:41:52;93646.63;;;1.75;100.00
11049;BME280;5577;42.706;23.160;2023-03-16T06:44:36;93648.13;;;1.67;100.00
11049;BME280;5577;42.706;23.160;2023-03-16T06:47:20;93651.25;;;1.78;100.00
11049;BME280;5577;42.706;23.160;2023-03-16T06:50:04;93656.47;;;1.78;100.00
11049;BME280;5577;42.706;23.160;2023-03-16T06:52:49;93660.66;;;1.87;100.00
11049;BME280;5577;42.706;23.160;2023-03-16T06:55:32;93665.03;;;1.70;100.00
11049;BME280;5577;42.706;23.160;2023-03-16T06:58:16;93667.81;;;1.73;100.00
11049;BME280;5577;42.706;23.160;2023-03-16T07:01:02;93669.09;;;1.93;100.00
11049;BME280;5577;42.706;23.160;2023-03-16T07:03:47;93669.88;;;2.02;100.00
11049;BME280;5577;42.706;23.160;2023-03-16T07:06:31;93674.84;;;2.20;100.00
11049;BME280;5577;42.706;23.160;2023-03-16T07:09:15;93620.41;;;1.80;100.00
11049;BME280;5577;42.706;23.160;2023-03-16T07:11:59;93675.44;;;2.17;100.00
11049;BME280;5577;42.706;23.160;2023-03-16T07:14:43;93678.03;;;2.09;100.00
11049;BME280;5577;42.706;23.160;2023-03-16T07:17:27;93685.88;;;2.00;100.00
11049;BME280;5577;42.706;23.160;2023-03-16T07:20:11;93687.69;;;2.00;100.00
11049;BME280;5577;42.706;23.160;2023-03-16T07:22:55;93690.03;;;2.10;100.00
11049;BME280;5577;42.706;23.160;2023-03-16T07:25:39;93696.66;;;2.24;100.00
11049;BME280;5577;42.706;23.160;2023-03-16T07:28:23;93698.00;;;2.13;100.00
11049;BME280;5577;42.706;23.160;2023-03-16T07:31:07;93699.41;;;2.19;100.00
11049;BME280;5577;42.706;23.160;2023-03-16T07:33:52;93664.94;;;1.83;100.00
11049;BME280;5577;42.706;23.160;2023-03-16T07:36:36;93706.41;;;2.02;100.00
11049;BME280;5577;42.706;23.160;2023-03-16T07:39:20;93702.81;;;2.20;100.00
11049;BME280;5577;42.706;23.160;2023-03-16T07:42:04;93710.50;;;2.25;100.00
11049;BME280;5577;42.706;23.160;2023-03-16T07:44:48;93700.22;;;2.37;100.00
11049;BME280;5577;42.706;23.160;2023-03-16T07:47:32;93661.16;;;2.06;100.00
11049;BME280;5577;42.706;23.160;2023-03-16T07:50:17;93692.19;;;2.16;100.00
11049;BME280;5577;42.706;23.160;2023-03-16T07:53:02;93717.31;;;2.60;100.00
11049;BME280;5577;42.706;23.160;2023-03-16T07:55:48;93707.94;;;2.50;100.00
11049;BME280;5577;42.706;23.160;2023-03-16T07:58:31;93713.59;;;2.52;100.00
11049;BME280;5577;42.706;23.160;2023-03-16T08:01:15;93697.00;;;2.48;100.00
11049;BME280;5577;42.706;23.160;2023-03-16T08:04:00;93723.47;;;2.81;100.00
11049;BME280;5577;42.706;23.160;2023-03-16T08:06:44;93705.66;;;2.74;100.00
11049;BME280;5577;42.706;23.160;2023-03-16T08:09:28;93712.13;;;2.85;100.00
11049;BME280;5577;42.706;23.160;2023-03-16T08:12:12;93700.56;;;2.86;100.00
11049;BME280;5577;42.706;23.160;2023-03-16T08:14:56;93714.72;;;3.03;100.00
11049;BME280;5577;42.706;23.160;2023-03-16T08:17:40;93728.72;;;3.15;100.00
11049;BME280;5577;42.706;23.160;2023-03-16T08:20:27;93718.84;;;3.29;100.00
11049;BME280;5577;42.706;23.160;2023-03-16T08:23:12;93726.41;;;2.96;100.00
11049;BME280;5577;42.706;23.160;2023-03-16T08:25:58;93736.41;;;3.20;100.00
11049;BME280;5577;42.706;23.160;2023-03-16T08:28:43;93738.81;;;3.42;100.00
11049;BME280;5577;42.706;23.160;2023-03-16T08:31:28;93738.22;;;3.20;100.00
11049;BME280;5577;42.706;23.160;2023-03-16T08:34:13;93733.03;;;3.11;100.00
11049;BME280;5577;42.706;23.160;2023-03-16T08:36:58;93736.09;;;3.22;100.00
11049;BME280;5577;42.706;23.160;2023-03-16T08:39:42;93735.47;;;3.25;100.00
11049;BME280;5577;42.706;23.160;2023-03-16T08:42:26;93745.31;;;3.11;100.00
11049;BME280;5577;42.706;23.160;2023-03-16T08:45:11;93747.31;;;2.88;100.00
11049;BME280;5577;42.706;23.160;2023-03-16T08:47:55;93750.25;;;3.12;100.00
11049;BME280;5577;42.706;23.160;2023-03-16T08:50:41;93722.41;;;2.82;100.00
11049;BME280;5577;42.706;23.160;2023-03-16T08:53:26;93753.63;;;2.87;100.00
11049;BME280;5577;42.706;23.160;2023-03-16T08:56:12;93754.06;;;2.89;100.00
11049;BME280;5577;42.706;23.160;2023-03-16T08:58:57;93740.72;;;2.99;100.00
11049;BME280;5577;42.706;23.160;2023-03-16T09:01:42;93760.25;;;3.10;100.00
11049;BME280;5577;42.706;23.160;2023-03-16T09:04:26;93755.78;;;3.28;100.00
11049;BME280;5577;42.706;23.160;2023-03-16T09:07:10;93741.31;;;3.13;100.00
11049;BME280;5577;42.706;23.160;2023-03-16T09:09:55;93713.81;;;2.81;100.00
11049;BME280;5577;42.706;23.160;2023-03-16T09:12:39;93758.22;;;3.16;100.00
11049;BME280;5577;42.706;23.160;2023-03-16T09:15:24;93757.31;;;3.37;100.00
11049;BME280;5577;42.706;23.160;2023-03-16T09:18:08;93763.56;;;3.62;100.00
11049;BME280;5577;42.706;23.160;2023-03-16T09:20:57;93770.34;;;3.80;100.00
11049;BME280;5577;42.706;23.160;2023-03-16T09:23:42;93762.19;;;3.73;100.00
11049;BME280;5577;42.706;23.160;2023-03-16T09:26:26;93768.31;;;3.85;100.00
11049;BME280;5577;42.706;23.160;2023-03-16T09:29:11;93733.72;;;3.63;100.00
11049;BME280;5577;42.706;23.160;2023-03-16T09:31:55;93766.00;;;3.92;100.00
11049;BME280;5577;42.706;23.160;2023-03-16T09:34:39;93768.72;;;3.96;100.00
11049;BME280;5577;42.706;23.160;2023-03-16T09:37:23;93770.47;;;4.29;100.00
11049;BME280;5577;42.706;23.160;2023-03-16T09:40:17;93770.34;;;4.55;100.00
11049;BME280;5577;42.706;23.160;2023-03-16T09:46:31;93762.66;;;4.99;100.00
11049;BME280;5577;42.706;23.160;2023-03-16T09:49:18;93776.41;;;4.76;100.00
11049;BME280;5577;42.706;23.160;2023-03-16T09:58:19;93784.03;;;4.31;100.00
11049;BME280;5577;42.706;23.160;2023-03-16T10:01:22;93789.25;;;4.69;100.00
11049;BME280;5577;42.706;23.160;2023-03-16T10:04:15;93786.97;;;4.59;100.00
11049;BME280;5577;42.706;23.160;2023-03-16T10:07:20;93793.53;;;3.90;100.00
11049;BME280;5577;42.706;23.160;2023-03-16T10:12:53;93782.00;;;4.37;100.00
11049;BME280;5577;42.706;23.160;2023-03-16T10:15:40;93783.19;;;4.10;100.00
11049;BME280;5577;42.706;23.160;2023-03-16T10:18:30;93784.06;;;4.23;100.00
11049;BME280;5577;42.706;23.160;2023-03-16T10:21:17;93727.91;;;4.32;100.00
11049;BME280;5577;42.706;23.160;2023-03-16T10:24:03;93767.06;;;4.66;100.00
11049;BME280;5577;42.706;23.160;2023-03-16T10:26:55;93774.69;;;4.51;100.00
11049;BME280;5577;42.706;23.160;2023-03-16T10:29:42;93768.78;;;4.25;100.00
11049;BME280;5577;42.706;23.160;2023-03-16T10:32:30;93782.00;;;4.37;100.00
11049;BME280;5577;42.706;23.160;2023-03-16T10:35:30;93776.00;;;4.28;100.00
11049;BME280;5577;42.706;23.160;2023-03-16T10:41:32;93766.75;;;4.30;100.00
11049;BME280;5577;42.706;23.160;2023-03-16T10:44:23;93776.72;;;4.45;100.00
11049;BME280;5577;42.706;23.160;2023-03-16T10:47:21;93761.31;;;4.44;100.00
11049;BME280;5577;42.706;23.160;2023-03-16T10:50:14;93775.22;;;4.65;100.00
11049;BME280;5577;42.706;23.160;2023-03-16T10:53:01;93769.59;;;4.46;100.00
11049;BME280;5577;42.706;23.160;2023-03-16T10:55:46;93770.63;;;4.62;100.00
11049;BME280;5577;42.706;23.160;2023-03-16T10:58:32;93742.91;;;4.52;100.00
11049;BME280;5577;42.706;23.160;2023-03-16T11:01:23;93771.94;;;4.97;100.00
11049;BME280;5577;42.706;23.160;2023-03-16T11:04:13;93778.06;;;4.80;100.00
11049;BME280;5577;42.706;23.160;2023-03-16T11:06:58;93770.16;;;4.60;100.00
11049;BME280;5577;42.706;23.160;2023-03-16T11:09:43;93765.03;;;4.43;100.00
11049;BME280;5577;42.706;23.160;2023-03-16T11:12:31;93779.13;;;4.21;100.00
11049;BME280;5577;42.706;23.160;2023-03-16T11:15:16;93764.34;;;4.17;100.00
11049;BME280;5577;42.706;23.160;2023-03-16T11:18:01;93781.63;;;4.09;100.00
11049;BME280;5577;42.706;23.160;2023-03-16T11:20:46;93683.72;;;3.56;100.00
11049;BME280;5577;42.706;23.160;2023-03-16T11:23:33;93783.72;;;4.33;100.00
11049;BME280;5577;42.706;23.160;2023-03-16T11:26:34;93773.28;;;4.16;100.00
11049;BME280;5577;42.706;23.160;2023-03-16T11:29:27;93782.63;;;3.88;100.00
11049;BME280;5577;42.706;23.160;2023-03-16T11:32:19;93765.44;;;3.70;100.00
11049;BME280;5577;42.706;23.160;2023-03-16T11:35:16;93780.19;;;3.74;100.00
11049;BME280;5577;42.706;23.160;2023-03-16T11:38:20;93790.19;;;3.72;100.00
11049;BME280;5577;42.706;23.160;2023-03-16T11:41:08;93780.97;;;3.58;100.00
11049;BME280;5577;42.706;23.160;2023-03-16T11:44:04;93789.00;;;3.53;100.00
11049;BME280;5577;42.706;23.160;2023-03-16T11:47:07;93787.78;;;3.59;100.00
11049;BME280;5577;42.706;23.160;2023-03-16T11:50:06;93785.47;;;3.57;100.00
11049;BME280;5577;42.706;23.160;2023-03-16T11:56:14;93780.97;;;3.58;100.00
11049;BME280;5577;42.706;23.160;2023-03-16T12:11:00;93790.22;;;3.21;100.00
11049;BME280;5577;42.706;23.160;2023-03-16T12:17:37;93800.38;;;3.14;100.00
11049;BME280;5577;42.706;23.160;2023-03-16T12:20:22;93800.88;;;3.25;100.00
11049;BME280;5577;42.706;23.160;2023-03-16T12:23:13;93768.25;;;2.96;100.00
11049;BME280;5577;42.706;23.160;2023-03-16T12:26:05;93797.16;;;3.08;100.00
11049;BME280;5577;42.706;23.160;2023-03-16T12:28:52;93758.38;;;2.76;100.00
11049;BME280;5577;42.706;23.160;2023-03-16T12:31:47;93814.53;;;3.13;100.00
11049;BME280;5577;42.706;23.160;2023-03-16T12:37:33;93816.56;;;3.25;100.00
11049;BME280;5577;42.706;23.160;2023-03-16T12:43:36;93825.81;;;3.39;100.00
11049;BME280;5577;42.706;23.160;2023-03-16T12:46:30;93821.94;;;3.37;100.00
11049;BME280;5577;42.706;23.160;2023-03-16T12:49:19;93829.47;;;3.30;100.00
11049;BME280;5577;42.706;23.160;2023-03-16T12:52:09;93827.00;;;3.16;100.00
11049;BME280;5577;42.706;23.160;2023-03-16T12:58:03;93832.88;;;3.30;100.00
11049;BME280;5577;42.706;23.160;2023-03-16T13:00:55;93830.09;;;3.35;100.00
11049;BME280;5577;42.706;23.160;2023-03-16T13:03:40;93831.97;;;3.52;100.00
11049;BME280;5577;42.706;23.160;2023-03-16T13:06:30;93826.06;;;3.55;100.00
11049;BME280;5577;42.706;23.160;2023-03-16T13:09:19;93843.78;;;3.58;100.00
11049;BME280;5577;42.706;23.160;2023-03-16T13:12:04;93821.78;;;3.50;100.00
11049;BME280;5577;42.706;23.160;2023-03-16T13:14:49;93843.97;;;3.53;100.00
11049;BME280;5577;42.706;23.160;2023-03-16T13:17:37;93809.31;;;3.39;100.00
11049;BME280;5577;42.706;23.160;2023-03-16T13:20:33;93822.41;;;3.47;100.00
11049;BME280;5577;42.706;23.160;2023-03-16T13:26:17;93858.44;;;3.67;100.00
11049;BME280;5577;42.706;23.160;2023-03-16T13:32:06;93845.66;;;3.49;100.00
11049;BME280;5577;42.706;23.160;2023-03-16T13:34:57;93852.88;;;3.43;100.00
11049;BME280;5577;42.706;23.160;2023-03-16T13:37:42;93840.72;;;3.30;100.00
11049;BME280;5577;42.706;23.160;2023-03-16T13:40:26;93854.28;;;3.32;100.00
11049;BME280;5577;42.706;23.160;2023-03-16T13:43:20;93853.97;;;3.25;100.00
11049;BME280;5577;42.706;23.160;2023-03-16T13:46:20;93860.53;;;3.23;100.00
11049;BME280;5577;42.706;23.160;2023-03-16T13:49:05;93875.00;;;3.20;100.00
11049;BME280;5577;42.706;23.160;2023-03-16T13:51:49;93873.94;;;3.30;100.00
11049;BME280;5577;42.706;23.160;2023-03-16T13:54:35;93874.88;;;3.17;100.00
11049;BME280;5577;42.706;23.160;2023-03-16T13:57:21;93872.22;;;3.08;100.00
11049;BME280;5577;42.706;23.160;2023-03-16T14:00:16;93880.03;;;2.91;100.00
11049;BME280;5577;42.706;23.160;2023-03-16T14:03:15;93881.88;;;2.90;100.00
11049;BME280;5577;42.706;23.160;2023-03-16T14:06:01;93871.72;;;2.89;100.00
11049;BME280;5577;42.706;23.160;2023-03-16T14:08:50;93876.03;;;2.93;100.00
11049;BME280;5577;42.706;23.160;2023-03-16T14:11:35;93874.63;;;2.87;100.00
11049;BME280;5577;42.706;23.160;2023-03-16T14:14:24;93849.41;;;2.74;100.00
11049;BME280;5577;42.706;23.160;2023-03-16T14:17:13;93886.34;;;2.90;100.00
11049;BME280;5577;42.706;23.160;2023-03-16T14:19:59;93880.97;;;2.95;100.00
11049;BME280;5577;42.706;23.160;2023-03-16T14:22:45;93890.06;;;3.06;100.00
11049;BME280;5577;42.706;23.160;2023-03-16T14:25:30;93844.16;;;2.74;100.00
11049;BME280;5577;42.706;23.160;2023-03-16T14:28:15;93878.50;;;2.98;100.00
11049;BME280;5577;42.706;23.160;2023-03-16T14:31:09;93882.66;;;2.99;100.00
11049;BME280;5577;42.706;23.160;2023-03-16T14:33:59;93873.59;;;3.05;100.00
11049;BME280;5577;42.706;23.160;2023-03-16T14:36:44;93881.31;;;3.19;100.00
11049;BME280;5577;42.706;23.160;2023-03-16T14:39:29;93890.09;;;3.23;100.00
11049;BME280;5577;42.706;23.160;2023-03-16T14:42:33;93887.66;;;3.18;100.00
11049;BME280;5577;42.706;23.160;2023-03-16T14:45:19;93870.66;;;2.90;100.00
11049;BME280;5577;42.706;23.160;2023-03-16T14:48:05;93891.91;;;3.05;100.00
11049;BME280;5577;42.706;23.160;2023-03-16T14:50:58;93898.19;;;2.96;100.00
11049;BME280;5577;42.706;23.160;2023-03-16T14:53:43;93896.81;;;2.90;100.00
11049;BME280;5577;42.706;23.160;2023-03-16T14:56:32;93904.91;;;2.80;100.00
11049;BME280;5577;42.706;23.160;2023-03-16T14:59:17;93897.81;;;2.80;100.00
11049;BME280;5577;42.706;23.160;2023-03-16T15:02:06;93911.50;;;2.77;100.00
11049;BME280;5577;42.706;23.160;2023-03-16T15:04:59;93919.97;;;2.74;100.00
11049;BME280;5577;42.706;23.160;2023-03-16T15:07:43;93915.34;;;2.71;100.00
11049;BME280;5577;42.706;23.160;2023-03-16T15:10:31;93931.63;;;2.68;100.00
11049;BME280;5577;42.706;23.160;2023-03-16T15:13:20;93926.50;;;2.55;100.00
11049;BME280;5577;42.706;23.160;2023-03-16T15:16:23;93931.72;;;2.55;100.00
11049;BME280;5577;42.706;23.160;2023-03-16T15:19:08;93905.22;;;2.39;100.00
11049;BME280;5577;42.706;23.160;2023-03-16T15:21:52;93932.38;;;2.38;100.00
11049;BME280;5577;42.706;23.160;2023-03-16T15:24:36;93940.09;;;2.43;100.00
11049;BME280;5577;42.706;23.160;2023-03-16T15:27:27;93933.69;;;2.49;100.00
11049;BME280;5577;42.706;23.160;2023-03-16T15:30:25;93945.47;;;2.47;100.00
11049;BME280;5577;42.706;23.160;2023-03-16T15:33:11;93914.19;;;2.25;100.00
11049;BME280;5577;42.706;23.160;2023-03-16T15:36:00;93951.78;;;2.46;100.00